Flight Track Log - Related Links

Times and Time Zones

All times are in EDT time to prevent confusion due to time zone crossing. See the N588AC flight status page for this flight to view local times or setup timezone preferences in your user account.

Time Position Orientation Groundspeed Altitude Reporting Facility
EDT Latitude Longitude Course Direction KTS MPH feet Rate Location/Type
Thu 09:17:59 AM 37.1506 -80.2981 160° South 184 212 7,300  Level Washington Center
Thu 09:19:00 AM 37.0825 -80.2756 165° South 198 228 9,700 2,083 Climbing Washington Center
Thu 09:20:00 AM 37.0064 -80.2500 165° South 232 267 11,500 2,136 Climbing Washington Center
Thu 09:20:58 AM 36.9303 -80.2197 162° South 268 308 13,900 2,471 Climbing Washington Center
Thu 09:21:59 AM 36.8644 -80.1975 165° South 282 325 16,400 2,115 Climbing Washington Center
Thu 09:22:00 AM 36.8061 -80.2397 160° South  Level FlightAware Approximate
Thu 09:23:00 AM 36.7390 -80.2099 160° South  Level FlightAware Approximate
Thu 09:23:00 AM 36.7944 -80.1700 163° South 277 319 18,200  Level Washington Center
Thu 09:24:00 AM 36.7342 -80.1144 144° Southeast 267 307 19,700 1,400 Climbing Washington Center
Thu 09:25:00 AM 36.6500 -80.0758 160° South 285 328 21,000 661 Climbing Washington Center
Thu 09:25:58 AM 36.5594 -80.0422 163° South 314 361 21,000  Level Washington Center
Thu 09:27:00 AM 36.4625 -80.0108 165° South 344 396 21,000  Level Washington Center
Thu 09:28:00 AM 36.3658 -79.9744 163° South 362 417 21,000  Level Washington Center
Thu 09:28:58 AM 36.2667 -79.9483 168° South 362 417 21,000 504 Level Washington Center
Thu 09:29:59 AM 36.1697 -79.9147 164° South 368 423 22,000 1,240 Climbing Washington Center
Thu 09:30:59 AM 36.0708 -79.8808 165° South 368 423 23,500 1,438 Climbing Washington Center
Thu 09:32:00 AM 35.9803 -79.8478 164° South 363 418 24,900 1,412 Climbing Washington Center
Thu 09:32:58 AM 35.8914 -79.8200 166° South 347 399 26,300 1,059 Climbing Washington Center
Thu 09:33:59 AM 35.7986 -79.7894 165° South 341 392 27,000 347 Climbing Washington Center
Thu 09:34:59 AM 35.6997 -79.7533 163° South 351 404 27,000  Level Washington Center
Thu 09:36:00 AM 35.5989 -79.7175 164° South 373 429 27,000  Level Washington Center
Thu 09:37:00 AM 35.4956 -79.6842 165° South 379 436 27,000  Level Washington Center
Thu 09:37:58 AM 35.3903 -79.6508 166° South 379 436 27,000  Level Washington Center
Thu 09:38:58 AM 35.2892 -79.6175 165° South 379 436 27,000 50 Level Washington Center
Thu 09:39:59 AM 35.1842 -79.5742 161° South 384 442 27,100 -850 Climbing Washington Center
Thu 09:40:58 AM 35.0881 -79.5136 153° Southeast 384 442 25,300 -1,815 Descending Washington Center
Thu 09:41:58 AM 34.9942 -79.4558 153° Southeast 389 448 23,500 -1,850 Descending Washington Center
Thu 09:42:58 AM 34.9022 -79.3958 152° Southeast 383 441 21,600 -1,672 Descending Washington Center
Thu 09:44:00 AM 34.8161 -79.3411 152° Southeast 370 426 20,100 -1,279 Descending Washington Center
Thu 09:45:00 AM 34.7322 -79.2892 153° Southeast 358 412 19,000 -1,450 Descending Washington Center
Thu 09:46:00 AM 34.6544 -79.2428 154° Southeast 333 383 17,200 -1,934 Descending Washington Center
Thu 09:47:32 AM 34.5281 -79.1628 152° Southeast 330 380 14,100 -1,579 Descending Jacksonville Center
Thu 09:48:32 AM 34.4539 -79.1181 154° Southeast 323 372 13,200 -1,000 Descending Jacksonville Center
Thu 09:49:32 AM 34.3731 -79.0689 153° Southeast 323 372 12,100 -1,100 Descending Jacksonville Center
Thu 09:50:32 AM 34.2964 -79.0219 153° Southeast 323 372 11,000 -1,300 Descending Jacksonville Center
Thu 09:51:32 AM 34.2286 -78.9822 154° Southeast 305 351 9,500 -1,750 Descending Jacksonville Center
Thu 09:52:32 AM 34.1606 -78.9400 153° Southeast 284 327 7,500 -2,150 Descending Jacksonville Center
Thu 09:53:32 AM 34.0869 -78.9233 169° South 273 314 5,200 -1,750 Descending Jacksonville Center
Thu 09:54:32 AM 34.0164 -78.9317 186° South 264 304 4,000 -600 Descending Jacksonville Center
Thu 09:55:32 AM 33.9433 -78.9375 184° South 259 298 4,000  Level Jacksonville Center
Thu 09:56:32 AM 33.8706 -78.9456 185° South 259 298 4,000 -200 Level Jacksonville Center
Thu 09:57:32 AM 33.8117 -78.9283 166° South 229 264 3,600 -500 Descending Jacksonville Center
Thu 09:58:32 AM 33.7731 -78.8900 140° Southeast 192 221 3,000 -300 Descending Jacksonville Center
Thu 09:59:32 AM 33.7206 -78.8875 178° South 192 221 3,000  Level Jacksonville Center
Thu 10:01:00 AM 33.7812 -78.7571 61° Northeast  Level FlightAware Approximate
Thu 10:08:00 AM 33.8000 -78.7167 76° East  Level FlightAware Approximate
Thu 10:09:00 AM 33.8117 -78.7239 76° East  Level Estimated
Thu 10:10:00 AM 33.8117 -78.7239 76° East  Level Estimated

Login

Don't have an account? Register now (free) for customized features, flight alerts, and more!